createdAt,value
2017-12-10T00:00:13.299Z,2.00
2017-12-10T00:02:39.431Z,2.10
2017-12-10T00:05:05.547Z,2.20
2017-12-10T00:07:32.036Z,2.10
2017-12-10T00:09:58.219Z,2.00
2017-12-10T00:12:24.342Z,2.10
2017-12-10T00:14:51.349Z,2.10
2017-12-10T00:17:17.437Z,2.00
2017-12-10T00:19:43.604Z,2.10
2017-12-10T00:22:09.755Z,2.00
2017-12-10T00:24:35.929Z,2.00
2017-12-10T00:27:02.073Z,1.80
2017-12-10T00:29:29.304Z,1.70
2017-12-10T00:31:55.411Z,1.70
2017-12-10T00:34:23.058Z,1.90
2017-12-10T00:36:49.149Z,1.80
2017-12-10T00:39:15.292Z,1.80
2017-12-10T00:41:41.513Z,1.80
2017-12-10T00:44:07.662Z,1.90
2017-12-10T00:46:33.756Z,1.60
2017-12-10T00:49:00.041Z,1.60
2017-12-10T00:51:26.295Z,1.50
2017-12-10T00:53:52.390Z,1.40
2017-12-10T00:56:19.332Z,1.20
2017-12-10T00:58:46.158Z,1.20
2017-12-10T01:01:12.266Z,1.20
2017-12-10T01:03:38.382Z,1.20
2017-12-10T01:06:05.665Z,1.20
2017-12-10T01:08:31.834Z,1.20
2017-12-10T01:10:58.193Z,1.20
2017-12-10T01:13:24.281Z,1.20
2017-12-10T01:15:50.451Z,1.20
2017-12-10T01:18:16.599Z,1.20
2017-12-10T01:20:42.720Z,1.20
2017-12-10T01:23:08.897Z,1.30
2017-12-10T01:25:35.004Z,1.30
2017-12-10T01:28:01.077Z,1.30
2017-12-10T01:30:27.157Z,1.40
2017-12-10T01:32:53.297Z,1.40
2017-12-10T01:35:19.406Z,1.40
2017-12-10T01:37:46.250Z,1.40
2017-12-10T01:40:13.116Z,1.40
2017-12-10T01:42:39.960Z,1.40
2017-12-10T01:45:06.095Z,1.40
2017-12-10T01:47:32.208Z,1.40
2017-12-10T01:49:58.308Z,1.40
2017-12-10T01:52:24.384Z,1.40
2017-12-10T01:54:50.684Z,1.40
2017-12-10T01:57:16.808Z,1.30
2017-12-10T01:59:42.886Z,1.30
2017-12-10T02:02:09.016Z,1.40
2017-12-10T02:04:35.155Z,1.30
2017-12-10T02:07:01.234Z,1.30
2017-12-10T02:09:27.456Z,1.30
2017-12-10T02:11:53.560Z,1.30
2017-12-10T02:14:19.646Z,1.30
2017-12-10T02:16:45.756Z,1.30
2017-12-10T02:19:11.992Z,1.30
2017-12-10T02:21:38.072Z,1.30
2017-12-10T02:24:04.934Z,1.30
2017-12-10T02:26:31.790Z,1.30
2017-12-10T02:28:58.678Z,1.20
2017-12-10T02:31:24.845Z,1.20
2017-12-10T02:33:51.030Z,1.20
2017-12-10T02:36:17.104Z,1.30
2017-12-10T02:38:43.248Z,1.20
2017-12-10T02:41:09.334Z,1.20
2017-12-10T02:43:36.194Z,1.30
2017-12-10T02:46:03.052Z,1.30
2017-12-10T02:48:29.868Z,1.30
2017-12-10T02:50:55.977Z,1.30
2017-12-10T02:53:22.100Z,1.40
2017-12-10T02:55:48.212Z,1.40
2017-12-10T02:58:14.315Z,1.30
2017-12-10T03:00:40.426Z,1.30
2017-12-10T03:03:06.561Z,1.20
2017-12-10T03:05:33.186Z,1.20
2017-12-10T03:07:59.295Z,1.20
2017-12-10T03:10:27.271Z,1.20
2017-12-10T03:12:53.370Z,1.20
2017-12-10T03:15:19.493Z,1.20
2017-12-10T03:17:45.584Z,1.20
2017-12-10T03:20:11.667Z,1.10
2017-12-10T03:22:37.782Z,1.10
2017-12-10T03:25:04.644Z,1.10
2017-12-10T03:27:30.726Z,1.10
2017-12-10T03:29:56.844Z,1.10
2017-12-10T03:32:22.919Z,1.10
2017-12-10T03:34:49.028Z,1.10
2017-12-10T03:37:15.879Z,1.10
2017-12-10T03:39:41.955Z,1.00
2017-12-10T03:42:08.060Z,1.10
2017-12-10T03:44:34.910Z,1.10
2017-12-10T03:47:01.000Z,1.00
2017-12-10T03:49:27.120Z,1.00
2017-12-10T03:51:53.237Z,1.10
2017-12-10T03:54:20.080Z,1.00
2017-12-10T03:56:46.892Z,1.00
2017-12-10T03:59:13.000Z,0.90
2017-12-10T04:01:39.096Z,1.00
2017-12-10T04:04:05.918Z,1.00
2017-12-10T04:06:32.043Z,1.00
2017-12-10T04:08:58.250Z,1.00
2017-12-10T04:11:25.152Z,0.90
2017-12-10T04:13:51.272Z,0.90
2017-12-10T04:16:17.365Z,0.90
2017-12-10T04:18:43.456Z,0.90
2017-12-10T04:21:09.566Z,0.90
2017-12-10T04:23:35.663Z,0.90
2017-12-10T04:26:01.788Z,1.00
2017-12-10T04:28:27.944Z,0.80
2017-12-10T04:30:54.025Z,0.80
2017-12-10T04:33:20.106Z,0.90
2017-12-10T04:35:46.214Z,0.90
2017-12-10T04:38:12.607Z,0.90
2017-12-10T04:40:40.157Z,1.00
2017-12-10T04:43:06.297Z,0.90
2017-12-10T04:45:32.562Z,0.90
2017-12-10T04:47:58.682Z,0.90
2017-12-10T04:50:24.792Z,0.90
2017-12-10T04:52:50.880Z,0.90
2017-12-10T04:55:16.965Z,0.90
2017-12-10T04:57:43.093Z,0.90
2017-12-10T05:00:09.185Z,0.90
2017-12-10T05:02:35.265Z,0.90
2017-12-10T05:05:01.398Z,0.90
2017-12-10T05:07:27.489Z,0.80
2017-12-10T05:09:53.605Z,0.80
2017-12-10T05:12:19.817Z,0.80
2017-12-10T05:14:45.920Z,0.80
2017-12-10T05:17:12.014Z,0.80
2017-12-10T05:19:38.159Z,0.80
2017-12-10T05:22:04.336Z,0.80
2017-12-10T05:24:30.445Z,0.80
2017-12-10T05:26:56.565Z,0.80
2017-12-10T05:29:22.669Z,0.80
2017-12-10T05:31:48.742Z,0.80
2017-12-10T05:34:14.897Z,0.80
2017-12-10T05:36:41.069Z,0.80
2017-12-10T05:39:07.934Z,0.70
2017-12-10T05:41:34.086Z,0.70
2017-12-10T05:44:00.270Z,0.70
2017-12-10T05:46:26.373Z,0.80
2017-12-10T05:48:52.573Z,0.70
2017-12-10T05:51:18.681Z,0.80
2017-12-10T05:53:44.785Z,0.70
2017-12-10T05:56:10.912Z,0.70
2017-12-10T05:58:37.002Z,0.70
2017-12-10T06:01:03.112Z,0.60
2017-12-10T06:03:29.244Z,0.70
2017-12-10T06:05:55.348Z,0.70
2017-12-10T06:08:22.187Z,0.80
2017-12-10T06:10:48.316Z,0.70
2017-12-10T06:13:14.463Z,0.70
2017-12-10T06:15:40.572Z,0.80
2017-12-10T06:18:06.692Z,0.80
2017-12-10T06:20:32.769Z,0.80
2017-12-10T06:22:58.923Z,0.80
2017-12-10T06:25:25.816Z,0.70
2017-12-10T06:27:51.913Z,0.70
2017-12-10T08:06:27.809Z,0.80
2017-12-10T08:08:54.729Z,0.80
2017-12-10T08:11:20.846Z,0.70
2017-12-10T08:13:47.455Z,0.70
2017-12-10T08:16:14.360Z,0.80
2017-12-10T08:18:40.626Z,0.70
2017-12-10T08:21:06.737Z,0.80
2017-12-10T08:23:32.891Z,0.90
2017-12-10T08:25:58.985Z,0.90
2017-12-10T08:28:25.085Z,0.80
2017-12-10T08:30:51.228Z,0.90
2017-12-10T08:33:18.074Z,1.00
2017-12-10T08:35:44.248Z,1.00
2017-12-10T08:38:11.387Z,1.00
2017-12-10T08:40:37.497Z,1.00
2017-12-10T08:43:03.626Z,1.10
2017-12-10T08:45:42.038Z,1.10
2017-12-10T08:48:09.461Z,1.20
2017-12-10T08:50:35.824Z,1.20
2017-12-10T08:53:02.679Z,1.30
2017-12-10T08:55:29.539Z,1.40
2017-12-10T08:57:56.528Z,1.50
2017-12-10T09:00:22.640Z,1.40
2017-12-10T09:02:48.802Z,1.40
2017-12-10T09:05:14.990Z,1.40
2017-12-10T09:07:41.837Z,1.50
2017-12-10T09:10:08.109Z,1.50
2017-12-10T09:12:34.983Z,1.50
2017-12-10T17:21:01.132Z,-0.20
2017-12-10T17:23:28.316Z,-0.30
2017-12-10T17:25:54.440Z,-0.40
2017-12-10T17:28:20.579Z,-0.50
2017-12-10T17:30:46.686Z,-0.50
2017-12-10T17:33:12.793Z,-0.50
2017-12-10T17:35:38.927Z,-0.50
2017-12-10T17:38:06.250Z,-0.60
2017-12-10T17:40:32.801Z,-0.60
2017-12-10T17:43:00.032Z,-0.60
2017-12-10T17:45:26.214Z,-0.60
2017-12-10T17:47:52.292Z,-0.60
2017-12-10T17:50:18.997Z,-0.60
2017-12-10T17:52:45.872Z,-0.60
2017-12-10T17:55:11.963Z,-0.70
2017-12-10T17:57:38.096Z,-0.60
2017-12-10T18:00:04.187Z,-0.60
2017-12-10T18:02:30.300Z,-0.70
2017-12-10T18:04:56.502Z,-0.60
2017-12-10T18:07:22.595Z,-0.60
2017-12-10T18:09:48.694Z,-0.60
2017-12-10T18:12:14.842Z,-0.50
2017-12-10T18:14:41.201Z,-0.70
2017-12-10T18:17:07.293Z,-0.70
2017-12-10T18:19:33.414Z,-0.70
2017-12-10T18:21:59.498Z,-0.60
2017-12-10T18:24:25.610Z,-0.70
2017-12-10T18:26:53.137Z,-0.70
2017-12-10T18:29:20.254Z,-0.60
2017-12-10T18:31:46.365Z,-0.70
2017-12-10T18:34:13.277Z,-0.50
2017-12-10T18:36:39.371Z,-0.60
2017-12-10T18:39:05.478Z,-0.50
2017-12-10T18:41:31.587Z,-0.50
2017-12-10T18:43:57.721Z,-0.50
2017-12-10T18:46:23.850Z,-0.50
2017-12-10T18:48:49.979Z,-0.60
2017-12-10T18:51:16.065Z,-0.50
2017-12-10T18:53:42.149Z,-0.40
2017-12-10T18:56:08.394Z,-0.40
2017-12-10T18:58:34.524Z,-0.40
2017-12-10T19:01:00.631Z,-0.40
2017-12-10T19:03:27.506Z,-0.30
2017-12-10T19:05:53.613Z,-0.40
2017-12-10T19:08:19.701Z,-0.40
2017-12-10T19:10:45.830Z,-0.30
2017-12-10T19:13:11.926Z,-0.30
2017-12-10T19:15:38.075Z,-0.30
2017-12-10T19:18:05.016Z,-0.30
2017-12-10T19:20:31.125Z,-0.30
2017-12-10T19:22:58.009Z,-0.30
2017-12-10T19:25:24.171Z,-0.20
2017-12-10T19:27:50.229Z,-0.30
2017-12-10T19:30:16.342Z,-0.40
2017-12-10T19:32:43.213Z,-0.30
2017-12-10T19:35:09.314Z,-0.30
2017-12-10T19:37:35.422Z,-0.20
2017-12-10T19:40:01.546Z,-0.20
2017-12-10T19:42:27.670Z,-0.20
2017-12-10T19:44:53.773Z,-0.10
2017-12-10T19:47:19.958Z,-0.20
2017-12-10T19:49:46.066Z,-0.10
2017-12-10T19:52:12.913Z,-0.10
2017-12-10T19:54:39.944Z,-0.10
2017-12-10T19:57:06.034Z,-0.10
2017-12-10T19:59:32.177Z,-0.10
2017-12-10T20:01:58.337Z,-0.20
2017-12-10T20:04:24.441Z,-0.20
2017-12-10T20:06:50.557Z,-0.10
2017-12-10T20:09:16.773Z,-0.10
2017-12-10T20:11:43.376Z,-0.20
2017-12-10T20:14:09.850Z,-0.20
2017-12-10T20:16:36.602Z,-0.10
2017-12-10T20:19:03.251Z,-0.20
2017-12-10T20:21:29.828Z,-0.20
2017-12-10T20:23:56.478Z,-0.10
2017-12-10T20:26:22.731Z,-0.20
2017-12-10T20:28:48.830Z,-0.20
2017-12-10T20:31:14.997Z,-0.20
2017-12-10T20:33:41.121Z,-0.20
2017-12-10T20:36:07.252Z,-0.20
2017-12-10T20:38:33.392Z,-0.20
2017-12-10T20:40:59.547Z,-0.30
2017-12-10T20:43:25.633Z,-0.30
2017-12-10T20:45:51.782Z,-0.30
2017-12-10T20:48:17.902Z,-0.30
2017-12-10T20:50:44.006Z,-0.30
2017-12-10T20:53:10.178Z,-0.30
2017-12-10T20:55:36.282Z,-0.20
2017-12-10T20:58:02.594Z,-0.20
2017-12-10T21:00:28.776Z,-0.30
2017-12-10T21:02:54.858Z,-0.20
2017-12-10T21:05:20.937Z,-0.20
2017-12-10T21:07:47.120Z,-0.20
2017-12-10T21:10:13.272Z,-0.20
2017-12-10T21:12:39.375Z,-0.20
2017-12-10T21:15:05.503Z,-0.20
2017-12-10T21:17:31.666Z,-0.20
2017-12-10T21:19:57.775Z,-0.20
2017-12-10T21:22:23.911Z,-0.20
2017-12-10T21:24:50.057Z,-0.10
2017-12-10T21:27:16.198Z,-0.10
2017-12-10T21:29:43.103Z,0.00
2017-12-10T21:32:09.229Z,-0.10
2017-12-10T21:34:35.357Z,0.00
2017-12-10T21:37:01.483Z,0.00
2017-12-10T21:39:27.636Z,0.00
2017-12-10T21:41:53.730Z,0.00
2017-12-10T21:44:19.849Z,0.00
2017-12-10T21:46:45.943Z,0.10
2017-12-10T21:49:12.089Z,0.10
2017-12-10T21:51:38.218Z,0.10
2017-12-10T21:54:04.445Z,0.10
2017-12-10T21:56:31.282Z,0.10
2017-12-10T21:58:57.437Z,0.10
2017-12-10T22:01:24.276Z,0.20
2017-12-10T22:03:50.390Z,0.20
2017-12-10T22:06:16.513Z,0.20
2017-12-10T22:08:42.594Z,0.20
2017-12-10T22:11:08.697Z,0.30
2017-12-10T22:13:34.814Z,0.30
2017-12-10T22:16:00.906Z,0.30
2017-12-10T22:18:27.076Z,0.30
2017-12-10T22:20:53.224Z,0.30
2017-12-10T22:23:19.324Z,0.40
2017-12-10T22:25:45.456Z,0.40
2017-12-10T22:28:12.190Z,0.40
2017-12-10T22:30:38.285Z,0.40
2017-12-10T22:33:04.401Z,0.40
2017-12-10T22:35:31.282Z,0.50
2017-12-10T22:37:57.421Z,0.40
2017-12-10T22:40:23.526Z,0.50
2017-12-10T22:42:50.473Z,0.60
2017-12-10T22:45:16.574Z,0.50
2017-12-10T22:47:42.729Z,0.60
2017-12-10T22:50:08.861Z,0.60
2017-12-10T22:52:34.958Z,0.60
2017-12-10T22:55:01.110Z,0.60
2017-12-10T22:57:27.254Z,0.60
2017-12-10T22:59:53.377Z,0.60
2017-12-10T23:02:19.467Z,0.60
2017-12-10T23:04:45.585Z,0.70
2017-12-10T23:07:11.673Z,0.60
2017-12-10T23:09:37.759Z,0.70
2017-12-10T23:12:03.903Z,0.70
2017-12-10T23:14:40.082Z,0.70
2017-12-10T23:17:06.206Z,0.70
2017-12-10T23:19:32.346Z,0.70
2017-12-10T23:21:58.538Z,0.60
2017-12-10T23:24:25.397Z,0.60
2017-12-10T23:26:52.234Z,0.60
2017-12-10T23:29:18.343Z,0.60
2017-12-10T23:31:44.517Z,0.70
2017-12-10T23:34:10.637Z,0.70
2017-12-10T23:36:36.739Z,0.80
2017-12-10T23:39:02.889Z,0.80
2017-12-10T23:41:29.114Z,0.80
2017-12-10T23:43:55.215Z,0.90
2017-12-10T23:46:22.065Z,1.00
2017-12-10T23:48:48.926Z,0.90
2017-12-10T23:51:15.773Z,0.90
2017-12-10T23:53:42.640Z,0.90
2017-12-10T23:56:09.486Z,1.00
2017-12-10T23:58:36.326Z,0.90
